Time;durP1;ratioP1;P1;durP2;ratioP2;P2;SDS_P1;SDS_P2;PMS_P1;PMS_P2;Temp;Humidity;BMP_temperature;BMP_pressure;BME280_temperature;BME280_humidity;BME280_pressure;Samples;Min_cycle;Max_cycle;Signal;HPM_P1;HPM_P2
2021/03/04 00:00:43;;;;;;;56.92;37.15;;;14.50;52.60;;;;;;2129012;27;20398;-60
2021/03/04 00:02:04;;;;;;;58.65;37.63;;;14.50;52.60;;;;;;2127297;27;20042;-59
2021/03/04 00:03:25;;;;;;;58.25;37.45;;;14.50;52.70;;;;;;2129604;27;20624;-60
2021/03/04 00:04:46;;;;;;;52.88;35.38;;;14.50;52.80;;;;;;2130175;27;20023;-60
2021/03/04 00:06:07;;;;;;;57.95;37.25;;;14.50;52.80;;;;;;2129514;27;20033;-60
2021/03/04 00:07:28;;;;;;;57.65;36.28;;;14.50;52.90;;;;;;2132318;27;20027;-60
2021/03/04 00:08:49;;;;;;;58.55;38.22;;;14.50;53.00;;;;;;2130148;27;20149;-61
2021/03/04 00:10:13;;;;;;;56.38;37.40;;;14.50;53.20;;;;;;2127635;27;20023;-59
2021/03/04 00:11:34;;;;;;;61.38;39.15;;;14.50;53.40;;;;;;2118595;27;20070;-60
2021/03/04 00:12:55;;;;;;;62.10;38.70;;;14.50;53.40;;;;;;2125991;27;20030;-61
2021/03/04 00:14:16;;;;;;;59.83;39.67;;;14.50;53.70;;;;;;2116542;27;20482;-59
2021/03/04 00:15:40;;;;;;;57.20;38.42;;;14.50;53.80;;;;;;2109016;28;20104;-60
2021/03/04 00:17:01;;;;;;;59.47;39.33;;;14.50;53.90;;;;;;2123975;27;20030;-59
2021/03/04 00:18:22;;;;;;;57.22;38.15;;;14.50;54.00;;;;;;2126924;27;20034;-61
2021/03/04 00:19:43;;;;;;;57.58;38.03;;;14.50;54.20;;;;;;2121536;27;20035;-59
2021/03/04 00:21:04;;;;;;;59.47;37.88;;;14.50;54.30;;;;;;2129353;27;20343;-59
2021/03/04 00:22:25;;;;;;;61.00;38.63;;;14.50;54.40;;;;;;2132051;27;20027;-61
2021/03/04 00:23:45;;;;;;;62.45;39.45;;;14.50;54.40;;;;;;2130295;27;20022;-59
2021/03/04 00:25:08;;;;;;;58.75;38.20;;;14.50;54.40;;;;;;2123927;27;20027;-60
2021/03/04 00:26:28;;;;;;;57.70;37.92;;;14.50;54.40;;;;;;2126960;27;20030;-60
2021/03/04 00:27:49;;;;;;;58.05;40.05;;;14.40;54.30;;;;;;2128577;27;20027;-60
2021/03/04 00:29:13;;;;;;;58.90;39.05;;;14.40;54.50;;;;;;2131180;27;20038;-60
2021/03/04 00:30:34;;;;;;;62.55;38.70;;;14.40;54.90;;;;;;2128221;27;20507;-60
2021/03/04 00:31:55;;;;;;;62.50;39.45;;;14.40;54.70;;;;;;2130464;27;20484;-61
2021/03/04 00:33:16;;;;;;;63.42;39.20;;;14.40;54.70;;;;;;2127748;27;20031;-59
2021/03/04 00:34:37;;;;;;;61.42;38.97;;;14.40;54.60;;;;;;2127454;27;20067;-61
2021/03/04 00:35:58;;;;;;;60.20;39.60;;;14.40;54.60;;;;;;2129060;27;20346;-59
2021/03/04 00:37:19;;;;;;;59.35;39.15;;;14.40;54.60;;;;;;2127967;27;20566;-60
2021/03/04 00:38:40;;;;;;;59.78;39.08;;;14.40;54.70;;;;;;2132063;27;20382;-60
2021/03/04 00:40:06;;;;;;;58.40;38.53;;;14.40;54.70;;;;;;2129325;27;20048;-60
2021/03/04 00:41:27;;;;;;;54.67;37.42;;;14.40;54.90;;;;;;2128163;27;20030;-61
2021/03/04 00:42:48;;;;;;;63.15;39.10;;;14.30;54.70;;;;;;2125632;27;20347;-62
2021/03/04 00:44:09;;;;;;;61.78;37.97;;;14.40;54.90;;;;;;2118924;27;20023;-59
2021/03/04 00:45:30;;;;;;;54.92;38.38;;;14.40;54.80;;;;;;2117697;27;20027;-59
2021/03/04 00:46:50;;;;;;;62.63;38.33;;;14.30;55.00;;;;;;2125449;27;20026;-60
2021/03/04 00:48:12;;;;;;;56.95;37.28;;;14.30;55.00;;;;;;2131612;27;20719;-60
2021/03/04 00:49:32;;;;;;;58.10;37.42;;;14.30;55.00;;;;;;2127461;27;20034;-60
2021/03/04 00:50:54;;;;;;;60.72;37.85;;;14.30;55.00;;;;;;2128690;27;20069;-61
2021/03/04 00:52:14;;;;;;;60.83;39.45;;;14.30;55.10;;;;;;2124034;27;20038;-60
2021/03/04 00:53:35;;;;;;;56.10;36.67;;;14.30;55.20;;;;;;2131506;27;20035;-61
2021/03/04 00:54:56;;;;;;;59.75;37.85;;;14.30;55.10;;;;;;2129179;27;20062;-61
2021/03/04 00:56:17;;;;;;;57.50;39.15;;;14.30;55.10;;;;;;2124629;27;20067;-59
2021/03/04 00:57:38;;;;;;;55.55;37.55;;;14.30;55.20;;;;;;2125019;27;20081;-62
2021/03/04 00:58:59;;;;;;;60.10;37.28;;;14.30;55.30;;;;;;2130054;27;20019;-61
2021/03/04 01:00:20;;;;;;;57.47;37.90;;;14.30;55.10;;;;;;2126740;27;20034;-60
2021/03/04 01:01:41;;;;;;;60.75;39.17;;;14.30;55.10;;;;;;2130709;27;20466;-59
2021/03/04 01:03:02;;;;;;;60.72;39.65;;;14.30;55.20;;;;;;2129139;27;20386;-59
2021/03/04 01:04:23;;;;;;;57.42;37.60;;;14.20;55.20;;;;;;2124718;27;20038;-59
2021/03/04 01:05:44;;;;;;;61.40;39.53;;;14.20;55.20;;;;;;2131509;27;20023;-61
2021/03/04 01:07:05;;;;;;;59.42;38.50;;;14.30;55.30;;;;;;2128516;27;20072;-61
2021/03/04 01:08:26;;;;;;;57.50;36.20;;;14.30;55.40;;;;;;2126010;27;20015;-61
2021/03/04 01:09:47;;;;;;;54.00;37.10;;;14.30;55.30;;;;;;2124127;27;20027;-60
2021/03/04 01:11:08;;;;;;;58.25;37.10;;;14.20;55.30;;;;;;2130618;27;20407;-59
2021/03/04 01:12:28;;;;;;;59.25;39.30;;;14.20;55.40;;;;;;2127251;27;20066;-60
2021/03/04 01:13:49;;;;;;;56.90;38.25;;;14.20;55.30;;;;;;2124101;27;20471;-61
2021/03/04 01:15:14;;;;;;;59.35;37.22;;;14.20;55.40;;;;;;2129202;27;20039;-59
2021/03/04 01:16:35;;;;;;;55.60;38.40;;;14.20;55.50;;;;;;2130055;27;20481;-59
2021/03/04 01:17:56;;;;;;;56.72;36.72;;;14.20;55.30;;;;;;2130271;27;20023;-58
2021/03/04 01:19:17;;;;;;;57.38;37.28;;;14.10;55.40;;;;;;2125305;27;20027;-59
2021/03/04 01:20:38;;;;;;;56.90;36.03;;;14.10;55.40;;;;;;2125240;27;20022;-60
2021/03/04 01:21:58;;;;;;;54.75;36.17;;;14.10;55.40;;;;;;2124923;27;20496;-61
2021/03/04 01:23:19;;;;;;;59.65;38.63;;;14.10;55.40;;;;;;2128749;27;20029;-60
2021/03/04 01:24:40;;;;;;;57.55;38.90;;;14.10;55.40;;;;;;2126818;27;20075;-60
2021/03/04 01:26:01;;;;;;;55.88;37.40;;;14.10;55.50;;;;;;2129538;27;20026;-60
2021/03/04 01:27:22;;;;;;;59.67;38.33;;;14.10;55.50;;;;;;2117654;27;20378;-61
2021/03/04 01:28:43;;;;;;;58.33;38.55;;;14.00;55.40;;;;;;2127169;27;20023;-60
2021/03/04 01:30:07;;;;;;;60.40;37.70;;;14.00;55.40;;;;;;2115484;27;20032;-61
2021/03/04 01:31:28;;;;;;;60.45;38.78;;;14.10;55.60;;;;;;2129032;27;20083;-60
2021/03/04 01:32:49;;;;;;;62.38;39.45;;;14.00;55.30;;;;;;2130783;27;20030;-60
2021/03/04 01:34:10;;;;;;;58.05;38.05;;;14.00;55.30;;;;;;2129855;27;20058;-60
2021/03/04 01:35:31;;;;;;;62.40;39.63;;;14.00;55.40;;;;;;2127354;27;20022;-60
2021/03/04 01:36:52;;;;;;;62.92;39.63;;;14.00;55.30;;;;;;2122781;27;20114;-60
2021/03/04 01:38:13;;;;;;;56.35;37.35;;;13.90;55.30;;;;;;2121697;27;20046;-60
2021/03/04 01:39:34;;;;;;;62.53;40.10;;;13.90;55.30;;;;;;2121506;27;20051;-60
2021/03/04 01:40:55;;;;;;;63.42;38.97;;;13.90;55.40;;;;;;2122581;27;20436;-62
2021/03/04 01:42:16;;;;;;;57.67;38.40;;;13.90;55.50;;;;;;2128701;27;20551;-62
2021/03/04 01:43:37;;;;;;;57.22;37.38;;;13.90;55.60;;;;;;2125534;27;20030;-60
2021/03/04 01:44:58;;;;;;;55.15;36.78;;;13.90;55.70;;;;;;2128834;27;20037;-59
2021/03/04 01:46:19;;;;;;;55.25;37.25;;;13.80;55.80;;;;;;2124174;27;20027;-61
2021/03/04 01:47:45;;;;;;;58.17;38.35;;;13.80;55.80;;;;;;2131630;27;20030;-60
2021/03/04 01:49:06;;;;;;;60.03;38.40;;;13.80;55.90;;;;;;2129891;27;20026;-59
2021/03/04 01:50:27;;;;;;;61.70;38.17;;;13.80;55.80;;;;;;2129143;27;20023;-61
2021/03/04 01:51:49;;;;;;;57.03;37.55;;;13.80;55.90;;;;;;2131584;27;20172;-59
2021/03/04 01:53:09;;;;;;;55.15;37.45;;;13.80;55.90;;;;;;2126799;27;20053;-59
2021/03/04 01:54:30;;;;;;;58.97;38.58;;;13.70;55.90;;;;;;2124539;27;20458;-59
2021/03/04 01:55:52;;;;;;;57.47;37.33;;;13.80;56.00;;;;;;2127270;27;20026;-60
2021/03/04 01:57:13;;;;;;;60.50;38.20;;;13.80;56.00;;;;;;2129993;27;20037;-60
2021/03/04 01:58:34;;;;;;;55.80;37.55;;;13.80;56.10;;;;;;2127987;27;20041;-61
2021/03/04 01:59:58;;;;;;;56.90;38.25;;;13.80;56.10;;;;;;2126875;27;20117;-59
2021/03/04 02:01:53;;;;;;;60.90;38.88;;;13.70;56.20;;;;;;2123809;27;20036;-60
2021/03/04 02:03:14;;;;;;;58.30;37.60;;;13.70;56.60;;;;;;2130271;27;20037;-60
2021/03/04 02:04:35;;;;;;;62.05;39.65;;;13.70;56.00;;;;;;2118573;27;20020;-59
2021/03/04 02:05:56;;;;;;;58.65;39.03;;;13.70;56.10;;;;;;2126054;27;20030;-60
2021/03/04 02:07:34;;;;;;;60.08;39.38;;;13.70;56.00;;;;;;2129693;27;20022;-60
2021/03/04 02:09:01;;;;;;;57.65;38.72;;;13.70;56.60;;;;;;2125840;27;20125;-60
2021/03/04 02:10:35;;;;;;;58.88;39.03;;;13.70;56.30;;;;;;2125274;27;20034;-60
2021/03/04 02:12:09;;;;;;;59.05;39.05;;;13.70;56.50;;;;;;2130441;27;20027;-59
2021/03/04 02:13:45;;;;;;;61.10;38.65;;;13.70;56.60;;;;;;2119219;27;20409;-59
2021/03/04 02:15:11;;;;;;;61.00;37.92;;;13.60;56.50;;;;;;2124920;27;20090;-59
2021/03/04 02:16:40;;;;;;;58.83;37.13;;;13.60;56.20;;;;;;2129922;27;20626;-61
2021/03/04 02:18:04;;;;;;;61.20;39.13;;;13.60;56.40;;;;;;2119710;27;20069;-60
2021/03/04 02:19:46;;;;;;;58.65;38.58;;;13.70;56.30;;;;;;2121387;27;20030;-62
2021/03/04 02:21:33;;;;;;;55.78;36.55;;;13.60;56.60;;;;;;2127379;27;20473;-60
2021/03/04 02:23:32;;;;;;;58.35;36.70;;;13.60;56.50;;;;;;2128952;27;20035;-60
2021/03/04 02:25:07;;;;;;;54.85;35.53;;;13.60;56.70;;;;;;2122491;27;21745;-60
2021/03/04 02:26:43;;;;;;;60.60;37.60;;;13.60;56.20;;;;;;2128817;27;20042;-60
2021/03/04 02:28:06;;;;;;;64.78;38.80;;;13.60;56.50;;;;;;2129083;27;20121;-61
2021/03/04 02:29:29;;;;;;;59.88;38.20;;;13.60;56.10;;;;;;2122961;27;20342;-59
2021/03/04 02:30:52;;;;;;;60.80;38.83;;;13.60;56.10;;;;;;2128939;27;20038;-59
2021/03/04 02:32:15;;;;;;;59.08;39.60;;;13.50;56.10;;;;;;2127483;27;20360;-60
2021/03/04 02:33:37;;;;;;;61.17;40.00;;;13.50;56.20;;;;;;2116249;27;20035;-59
2021/03/04 02:35:15;;;;;;;64.57;39.78;;;13.50;56.30;;;;;;2130233;27;20034;-61
2021/03/04 02:36:39;;;;;;;58.38;38.80;;;13.40;56.50;;;;;;2126295;27;20445;-59
2021/03/04 02:38:10;;;;;;;61.10;38.88;;;13.40;56.20;;;;;;2127429;27;20034;-60
2021/03/04 02:39:32;;;;;;;65.07;38.88;;;13.40;56.60;;;;;;2121643;27;20516;-59
2021/03/04 02:40:54;;;;;;;61.10;39.95;;;13.40;56.30;;;;;;2116612;27;20061;-60
2021/03/04 02:42:19;;;;;;;63.70;41.13;;;13.40;56.40;;;;;;2122285;27;20027;-59
2021/03/04 02:43:41;;;;;;;59.58;37.72;;;13.30;56.60;;;;;;2130103;27;20034;-61
2021/03/04 02:45:03;;;;;;;61.28;39.92;;;13.30;56.70;;;;;;2127735;27;20038;-59
2021/03/04 02:46:25;;;;;;;64.05;40.50;;;13.30;56.70;;;;;;2126971;27;20090;-60
2021/03/04 02:47:46;;;;;;;64.88;40.92;;;13.30;56.70;;;;;;2121690;27;20374;-59
2021/03/04 02:49:08;;;;;;;61.42;39.30;;;13.20;56.80;;;;;;2127155;27;20102;-59
2021/03/04 02:50:30;;;;;;;63.72;39.63;;;13.20;56.80;;;;;;2124591;27;20456;-60
2021/03/04 02:51:52;;;;;;;58.25;38.67;;;13.20;56.80;;;;;;2131523;27;20034;-59
2021/03/04 02:53:13;;;;;;;60.35;39.58;;;13.20;56.80;;;;;;2126210;27;20426;-59
2021/03/04 02:54:35;;;;;;;63.97;40.30;;;13.20;56.90;;;;;;2121027;27;20027;-59
2021/03/04 02:55:57;;;;;;;61.33;39.17;;;13.20;56.90;;;;;;2124142;27;20545;-60
2021/03/04 02:57:20;;;;;;;61.00;39.08;;;13.20;57.00;;;;;;2124703;27;20023;-60
2021/03/04 02:58:41;;;;;;;62.00;39.70;;;13.20;57.00;;;;;;2120183;27;20035;-60
2021/03/04 03:00:05;;;;;;;62.95;39.85;;;13.20;57.00;;;;;;2128564;27;20518;-61
2021/03/04 03:01:28;;;;;;;62.25;39.40;;;13.20;56.90;;;;;;2120865;28;20106;-59
2021/03/04 03:02:51;;;;;;;59.80;38.95;;;13.20;57.00;;;;;;2127136;27;20019;-60
2021/03/04 03:04:12;;;;;;;61.13;39.50;;;13.10;56.90;;;;;;2130017;27;20027;-60
2021/03/04 03:05:34;;;;;;;64.07;39.22;;;13.10;56.80;;;;;;2127060;27;20645;-61
2021/03/04 03:06:56;;;;;;;60.83;38.95;;;13.10;57.40;;;;;;2127904;27;20179;-60
2021/03/04 03:08:18;;;;;;;66.90;41.35;;;13.10;56.80;;;;;;2129289;27;20058;-60
2021/03/04 03:09:42;;;;;;;58.10;38.25;;;13.10;56.90;;;;;;2126927;27;20368;-60
2021/03/04 03:11:04;;;;;;;61.88;40.10;;;13.10;57.00;;;;;;2128152;27;20038;-60
2021/03/04 03:12:25;;;;;;;62.28;39.58;;;13.00;56.90;;;;;;2125486;27;20063;-60
2021/03/04 03:13:49;;;;;;;57.20;39.30;;;13.00;56.90;;;;;;2128392;27;20048;-60
2021/03/04 03:15:13;;;;;;;63.03;39.63;;;13.00;56.90;;;;;;2129041;27;20023;-60
2021/03/04 03:16:34;;;;;;;63.45;37.88;;;13.00;56.90;;;;;;2130843;27;20465;-61
2021/03/04 03:17:55;;;;;;;62.92;39.55;;;13.00;56.80;;;;;;2129482;27;20043;-60
2021/03/04 03:19:16;;;;;;;64.35;40.80;;;13.00;56.80;;;;;;2127699;27;20041;-60
2021/03/04 03:20:37;;;;;;;60.42;39.47;;;12.90;56.80;;;;;;2127902;27;20046;-60
2021/03/04 03:21:58;;;;;;;60.95;39.03;;;12.90;56.80;;;;;;2125555;27;20035;-59
2021/03/04 03:23:19;;;;;;;63.08;38.92;;;12.90;56.90;;;;;;2129301;27;20031;-60
2021/03/04 03:24:40;;;;;;;63.55;40.50;;;12.90;57.00;;;;;;2128324;27;20505;-59
2021/03/04 03:26:01;;;;;;;62.45;40.05;;;12.90;57.10;;;;;;2129655;27;20066;-59
2021/03/04 03:27:22;;;;;;;60.72;39.25;;;12.90;57.10;;;;;;2125892;27;20058;-59
2021/03/04 03:28:44;;;;;;;61.90;39.75;;;12.90;57.20;;;;;;2127004;27;20025;-58
2021/03/04 03:30:08;;;;;;;65.10;39.58;;;12.80;57.40;;;;;;2127656;27;20326;-59
2021/03/04 03:31:30;;;;;;;62.65;40.08;;;12.80;57.50;;;;;;2117604;28;20462;-60
2021/03/04 03:32:58;;;;;;;59.67;38.85;;;12.80;57.60;;;;;;2122270;27;20024;-59
2021/03/04 03:34:18;;;;;;;61.50;38.92;;;12.80;57.90;;;;;;2126067;27;20027;-60
2021/03/04 03:35:40;;;;;;;64.93;39.70;;;12.80;57.80;;;;;;2119796;27;20393;-61
2021/03/04 03:37:02;;;;;;;63.78;40.63;;;12.80;57.80;;;;;;2123398;27;20410;-58
2021/03/04 03:38:23;;;;;;;61.85;39.40;;;12.80;57.90;;;;;;2124891;27;20034;-60
2021/03/04 03:39:49;;;;;;;61.15;40.22;;;12.80;57.90;;;;;;2117293;27;20038;-60
2021/03/04 03:41:11;;;;;;;64.60;40.53;;;12.80;57.80;;;;;;2125747;27;20106;-59
2021/03/04 03:42:32;;;;;;;60.63;40.15;;;12.80;57.80;;;;;;2126521;27;20022;-60
2021/03/04 03:43:54;;;;;;;63.00;39.42;;;12.90;58.00;;;;;;2126164;27;20023;-60
2021/03/04 03:45:19;;;;;;;67.40;40.25;;;12.80;58.50;;;;;;2127107;27;20062;-61
2021/03/04 03:46:41;;;;;;;68.60;41.20;;;12.80;58.10;;;;;;2124957;27;20026;-61
2021/03/04 03:48:03;;;;;;;63.90;40.83;;;12.90;58.10;;;;;;2128955;27;20022;-60
2021/03/04 03:49:26;;;;;;;65.07;40.38;;;12.90;58.20;;;;;;2126684;27;20051;-60
2021/03/04 03:50:52;;;;;;;60.63;39.80;;;12.90;58.20;;;;;;2130688;27;20019;-60
2021/03/04 03:52:13;;;;;;;58.47;37.70;;;12.90;58.30;;;;;;2128538;27;20056;-60
2021/03/04 03:53:35;;;;;;;64.55;40.08;;;12.90;58.10;;;;;;2124640;27;20057;-60
2021/03/04 03:54:57;;;;;;;65.53;40.50;;;12.90;58.10;;;;;;2123761;27;20027;-60
2021/03/04 03:56:20;;;;;;;56.80;38.42;;;12.90;58.10;;;;;;2130220;27;20035;-60
2021/03/04 03:57:43;;;;;;;62.90;40.20;;;12.90;58.10;;;;;;2127938;27;20033;-60
2021/03/04 03:59:06;;;;;;;62.08;40.17;;;12.90;58.10;;;;;;2126121;27;20027;-60
2021/03/04 04:00:27;;;;;;;63.58;39.80;;;12.90;58.20;;;;;;2126438;27;20023;-60
2021/03/04 04:01:49;;;;;;;67.00;42.25;;;13.00;58.20;;;;;;2130457;27;20035;-60
2021/03/04 04:03:10;;;;;;;63.08;42.00;;;13.00;58.10;;;;;;2129991;27;20027;-60
2021/03/04 04:04:32;;;;;;;65.10;40.63;;;13.00;58.20;;;;;;2131143;27;20055;-60
2021/03/04 04:05:53;;;;;;;61.10;39.88;;;13.00;58.30;;;;;;2130598;27;20023;-60
2021/03/04 04:07:14;;;;;;;59.05;38.90;;;13.00;58.30;;;;;;2132102;27;20030;-60
2021/03/04 04:08:35;;;;;;;65.00;40.03;;;13.00;58.30;;;;;;2127095;27;20583;-60
2021/03/04 04:09:57;;;;;;;63.65;40.25;;;13.00;58.30;;;;;;2131280;27;20050;-61
2021/03/04 04:11:20;;;;;;;64.57;39.88;;;13.00;58.20;;;;;;2129886;27;20105;-58
2021/03/04 04:12:41;;;;;;;66.82;41.33;;;13.00;58.20;;;;;;2128728;27;20407;-60
2021/03/04 04:14:02;;;;;;;64.47;41.22;;;13.00;58.20;;;;;;2130446;27;20049;-61
2021/03/04 04:15:26;;;;;;;64.13;40.05;;;13.00;58.20;;;;;;2130700;27;20062;-60
2021/03/04 04:16:47;;;;;;;62.42;40.10;;;13.00;58.20;;;;;;2131538;27;20631;-60
2021/03/04 04:18:08;;;;;;;62.58;39.70;;;13.00;58.10;;;;;;2130002;27;20496;-60
2021/03/04 04:19:30;;;;;;;59.22;39.88;;;13.00;58.20;;;;;;2127005;27;20031;-60
2021/03/04 04:20:51;;;;;;;61.60;41.13;;;13.00;58.10;;;;;;2131129;27;20026;-60
2021/03/04 04:22:12;;;;;;;60.88;39.60;;;13.00;58.00;;;;;;2132649;27;20468;-60
2021/03/04 04:23:34;;;;;;;64.82;40.20;;;13.00;58.10;;;;;;2131527;27;20026;-60
2021/03/04 04:24:57;;;;;;;58.55;37.22;;;13.00;58.10;;;;;;2130166;27;20533;-61
2021/03/04 04:26:19;;;;;;;59.53;37.63;;;12.90;58.10;;;;;;2125300;27;20122;-60
2021/03/04 04:27:41;;;;;;;58.97;37.45;;;12.90;58.10;;;;;;2127311;27;20105;-60
2021/03/04 04:29:02;;;;;;;57.50;39.05;;;12.90;58.10;;;;;;2130763;27;20023;-60
2021/03/04 04:30:25;;;;;;;55.97;37.53;;;12.90;58.10;;;;;;2129167;27;20038;-61
2021/03/04 04:31:46;;;;;;;59.75;37.80;;;12.90;58.10;;;;;;2130949;27;20369;-61
2021/03/04 04:33:07;;;;;;;56.00;35.97;;;12.90;58.00;;;;;;2129487;27;20049;-60
2021/03/04 04:34:28;;;;;;;55.70;36.25;;;12.90;58.00;;;;;;2129976;27;20079;-61
2021/03/04 04:35:49;;;;;;;55.78;36.75;;;12.90;58.00;;;;;;2126990;27;20484;-60
2021/03/04 04:37:10;;;;;;;51.30;33.28;;;12.90;57.90;;;;;;2130536;27;20357;-60
2021/03/04 04:38:31;;;;;;;56.25;35.15;;;12.90;57.90;;;;;;2126153;27;20026;-60
2021/03/04 04:39:52;;;;;;;52.88;33.88;;;12.90;57.90;;;;;;2122442;27;20035;-60
2021/03/04 04:41:13;;;;;;;50.90;33.78;;;12.90;57.80;;;;;;2126381;27;20453;-60
2021/03/04 04:42:35;;;;;;;55.42;35.45;;;12.80;57.80;;;;;;2129852;27;20083;-60
2021/03/04 04:43:55;;;;;;;50.65;33.75;;;12.80;57.90;;;;;;2117904;27;20027;-60
2021/03/04 04:45:16;;;;;;;50.40;32.13;;;12.80;57.90;;;;;;2125118;27;20118;-60
2021/03/04 04:46:37;;;;;;;51.58;33.53;;;12.80;57.90;;;;;;2130437;27;20027;-60
2021/03/04 04:47:58;;;;;;;52.40;32.67;;;12.80;57.80;;;;;;2131165;27;20035;-60
2021/03/04 04:49:19;;;;;;;51.75;32.17;;;12.80;57.80;;;;;;2123756;27;20028;-60
2021/03/04 04:50:40;;;;;;;51.55;32.72;;;12.80;57.90;;;;;;2129269;27;20633;-60
2021/03/04 04:52:01;;;;;;;53.75;33.10;;;12.80;57.90;;;;;;2129307;27;20030;-60
2021/03/04 04:53:22;;;;;;;48.90;32.47;;;12.80;57.90;;;;;;2126289;27;20039;-60
2021/03/04 04:54:44;;;;;;;48.17;32.03;;;12.80;57.80;;;;;;2129592;27;20096;-60
2021/03/04 04:56:05;;;;;;;49.40;30.95;;;12.70;57.80;;;;;;2121672;27;20531;-61
2021/03/04 04:57:26;;;;;;;51.92;32.88;;;12.80;57.90;;;;;;2127067;27;20058;-61
2021/03/04 04:58:47;;;;;;;50.95;31.00;;;12.80;57.80;;;;;;2127112;27;20098;-60
2021/03/04 05:00:10;;;;;;;47.65;31.08;;;12.70;57.80;;;;;;2126685;27;20042;-60
2021/03/04 05:01:31;;;;;;;46.45;30.25;;;12.70;58.00;;;;;;2130142;27;20066;-60
2021/03/04 05:02:52;;;;;;;48.67;32.20;;;12.70;57.90;;;;;;2128788;27;20094;-61
2021/03/04 05:04:13;;;;;;;46.05;29.33;;;12.70;57.90;;;;;;2129077;27;20035;-60
2021/03/04 05:05:34;;;;;;;49.95;30.25;;;12.70;57.80;;;;;;2131057;27;20029;-61
2021/03/04 05:06:55;;;;;;;49.72;30.13;;;12.70;57.70;;;;;;2129846;27;20023;-60
2021/03/04 05:08:15;;;;;;;42.88;28.60;;;12.70;57.70;;;;;;2127796;27;20031;-60
2021/03/04 05:09:36;;;;;;;43.17;28.30;;;12.70;57.80;;;;;;2125547;27;20511;-60
2021/03/04 05:10:57;;;;;;;48.40;29.70;;;12.70;57.70;;;;;;2127229;27;20045;-60
2021/03/04 05:12:19;;;;;;;42.90;27.95;;;12.70;57.60;;;;;;2127614;27;20034;-60
2021/03/04 05:13:40;;;;;;;46.80;28.60;;;12.70;57.70;;;;;;2122055;27;20517;-60
2021/03/04 05:15:03;;;;;;;46.35;29.23;;;12.70;57.60;;;;;;2126583;27;20127;-60
2021/03/04 05:16:24;;;;;;;44.75;28.42;;;12.70;57.60;;;;;;2129823;27;20530;-60
2021/03/04 05:17:44;;;;;;;43.58;28.08;;;12.70;57.60;;;;;;2127530;27;20027;-60
2021/03/04 05:19:06;;;;;;;47.10;29.65;;;12.60;57.50;;;;;;2127501;27;20043;-60
2021/03/04 05:20:27;;;;;;;46.95;29.42;;;12.70;57.60;;;;;;2128173;27;20043;-60
2021/03/04 05:21:48;;;;;;;41.72;28.23;;;12.60;57.50;;;;;;2129274;27;20588;-60
2021/03/04 05:23:09;;;;;;;45.03;28.08;;;12.60;57.50;;;;;;2124914;27;20563;-60
2021/03/04 05:24:30;;;;;;;43.40;29.10;;;12.60;57.50;;;;;;2128929;27;20023;-60
2021/03/04 05:25:50;;;;;;;43.38;27.15;;;12.60;57.50;;;;;;2130393;27;20042;-60
2021/03/04 05:27:11;;;;;;;47.15;28.27;;;12.60;57.50;;;;;;2130085;27;20035;-60
2021/03/04 05:28:32;;;;;;;48.60;29.02;;;12.60;57.50;;;;;;2131463;27;20059;-61
2021/03/04 05:29:53;;;;;;;45.40;28.70;;;12.60;57.40;;;;;;2128222;27;20031;-60
2021/03/04 05:31:14;;;;;;;44.97;27.42;;;12.60;57.50;;;;;;2127223;27;20465;-61
2021/03/04 05:32:35;;;;;;;41.22;27.92;;;12.50;57.30;;;;;;2127651;27;20461;-60
2021/03/04 05:33:56;;;;;;;42.97;27.38;;;12.50;57.40;;;;;;2130557;27;20033;-58
2021/03/04 05:35:17;;;;;;;46.53;27.88;;;12.50;57.40;;;;;;2124840;27;20369;-59
2021/03/04 05:36:38;;;;;;;47.08;28.05;;;12.50;57.50;;;;;;2130795;27;20066;-59
2021/03/04 05:37:59;;;;;;;44.97;28.50;;;12.50;57.50;;;;;;2126414;27;20126;-60
2021/03/04 05:39:20;;;;;;;48.05;29.35;;;12.50;57.50;;;;;;2125596;27;20034;-59
2021/03/04 05:40:41;;;;;;;47.22;27.95;;;12.50;57.50;;;;;;2130061;27;20026;-59
2021/03/04 05:42:05;;;;;;;44.97;27.13;;;12.50;57.50;;;;;;2130830;27;20510;-59
2021/03/04 05:43:26;;;;;;;44.10;27.52;;;12.40;57.50;;;;;;2120256;27;20074;-59
2021/03/04 05:44:48;;;;;;;44.03;27.10;;;12.40;57.40;;;;;;2126909;27;20480;-59
2021/03/04 05:46:09;;;;;;;41.85;26.92;;;12.40;57.40;;;;;;2129780;27;20798;-59
2021/03/04 05:47:31;;;;;;;43.15;27.13;;;12.40;57.40;;;;;;2122931;27;20559;-59
2021/03/04 05:48:52;;;;;;;43.90;26.10;;;12.40;57.50;;;;;;2119721;27;20028;-59
2021/03/04 05:50:16;;;;;;;44.63;27.40;;;12.40;57.50;;;;;;2129354;27;20050;-59
2021/03/04 05:51:40;;;;;;;44.25;25.85;;;12.30;57.50;;;;;;2123174;27;20023;-59
2021/03/04 05:53:09;;;;;;;39.13;24.17;;;12.30;57.50;;;;;;2130985;27;20033;-59
2021/03/04 05:54:35;;;;;;;40.05;24.42;;;12.30;57.70;;;;;;2117537;27;20110;-58
2021/03/04 05:55:56;;;;;;;33.53;20.88;;;12.30;57.60;;;;;;2122719;27;20026;-59
2021/03/04 05:57:18;;;;;;;33.92;21.45;;;12.20;57.50;;;;;;2120043;27;20478;-58
2021/03/04 05:58:39;;;;;;;31.02;20.25;;;12.20;57.60;;;;;;2119218;27;20011;-60
2021/03/04 06:00:00;;;;;;;33.00;20.13;;;12.20;57.60;;;;;;2120870;27;20042;-58
2021/03/04 06:01:22;;;;;;;31.35;19.75;;;12.20;57.70;;;;;;2125635;27;20361;-58
2021/03/04 06:02:45;;;;;;;29.52;19.98;;;12.10;57.70;;;;;;2128824;27;20054;-58
2021/03/04 06:04:06;;;;;;;31.45;18.92;;;12.10;57.70;;;;;;2129677;27;20019;-60
2021/03/04 06:05:27;;;;;;;29.33;17.85;;;12.10;58.30;;;;;;2132137;27;20021;-59
2021/03/04 06:06:48;;;;;;;26.98;17.08;;;12.00;57.70;;;;;;2129321;27;20023;-59
2021/03/04 06:08:09;;;;;;;29.20;17.73;;;12.00;57.70;;;;;;2127455;27;20102;-59
2021/03/04 06:09:31;;;;;;;27.63;18.60;;;12.00;57.80;;;;;;2128073;27;20370;-59
2021/03/04 06:10:52;;;;;;;24.83;17.42;;;12.00;57.90;;;;;;2130658;27;20041;-58
2021/03/04 06:12:13;;;;;;;25.77;17.45;;;11.90;57.90;;;;;;2131217;27;20121;-60
2021/03/04 06:13:34;;;;;;;25.65;17.50;;;11.90;58.00;;;;;;2130602;27;20018;-60
2021/03/04 06:14:55;;;;;;;29.80;18.20;;;11.90;58.00;;;;;;2128152;27;20076;-60
2021/03/04 06:16:16;;;;;;;27.42;17.42;;;11.90;58.10;;;;;;2130060;27;20101;-60
2021/03/04 06:17:37;;;;;;;26.23;17.83;;;11.90;58.10;;;;;;2131767;27;20023;-60
2021/03/04 06:18:58;;;;;;;26.38;17.95;;;11.80;58.10;;;;;;2129617;27;20031;-60
2021/03/04 06:20:19;;;;;;;26.02;17.58;;;11.80;58.20;;;;;;2125455;27;20083;-59
2021/03/04 06:21:40;;;;;;;25.48;17.95;;;11.80;58.30;;;;;;2128974;27;20071;-60
2021/03/04 06:23:01;;;;;;;25.90;17.30;;;11.80;58.30;;;;;;2125456;27;20039;-59
2021/03/04 06:24:22;;;;;;;26.25;17.40;;;11.80;58.40;;;;;;2127983;27;20094;-59
2021/03/04 06:25:48;;;;;;;28.92;17.42;;;11.70;58.30;;;;;;2127884;27;20489;-60
2021/03/04 06:27:09;;;;;;;25.83;16.42;;;11.80;58.60;;;;;;2127038;27;20110;-59
2021/03/04 06:28:31;;;;;;;27.65;16.52;;;11.70;58.40;;;;;;2126503;27;20045;-60
2021/03/04 06:29:53;;;;;;;23.40;15.63;;;11.70;58.40;;;;;;2130143;27;20151;-59
2021/03/04 06:31:18;;;;;;;22.98;15.55;;;11.70;58.40;;;;;;2126231;27;20038;-60
2021/03/04 06:32:41;;;;;;;22.02;14.98;;;11.70;58.60;;;;;;2127281;27;20984;-60
2021/03/04 06:34:02;;;;;;;23.63;15.20;;;11.70;58.50;;;;;;2129646;27;20056;-60
2021/03/04 06:35:34;;;;;;;23.40;16.15;;;11.60;58.50;;;;;;2125872;27;20035;-60
2021/03/04 06:37:01;;;;;;;19.80;13.80;;;11.70;58.70;;;;;;2124336;27;20067;-60
2021/03/04 06:38:25;;;;;;;22.42;14.50;;;11.60;58.80;;;;;;2130501;27;20034;-59
2021/03/04 06:39:46;;;;;;;18.45;13.02;;;11.60;58.70;;;;;;2129246;27;20109;-60
2021/03/04 06:41:18;;;;;;;21.45;13.80;;;11.60;58.90;;;;;;2128333;27;20623;-60
2021/03/04 06:42:41;;;;;;;20.33;13.13;;;11.60;59.20;;;;;;2125398;27;20111;-59
2021/03/04 06:44:03;;;;;;;17.67;12.35;;;11.60;59.00;;;;;;2130121;27;20038;-60
2021/03/04 06:45:24;;;;;;;17.73;12.63;;;11.60;59.00;;;;;;2124614;27;20038;-60
2021/03/04 06:46:45;;;;;;;20.33;14.43;;;11.60;59.00;;;;;;2129204;27;20015;-59
2021/03/04 06:48:17;;;;;;;23.23;14.60;;;11.60;59.10;;;;;;2131159;27;20049;-60
2021/03/04 06:49:40;;;;;;;21.05;14.23;;;11.60;59.40;;;;;;2125931;27;20053;-60
2021/03/04 06:51:03;;;;;;;19.25;14.02;;;11.60;59.20;;;;;;2124514;27;20084;-60
2021/03/04 06:52:29;;;;;;;19.60;13.80;;;11.60;59.40;;;;;;2125560;27;20128;-60
2021/03/04 06:53:52;;;;;;;20.95;13.85;;;11.60;60.00;;;;;;2125632;27;20024;-60
2021/03/04 06:55:14;;;;;;;20.05;13.32;;;11.60;59.40;;;;;;2128927;27;20126;-60
2021/03/04 06:56:35;;;;;;;21.80;14.82;;;11.60;59.60;;;;;;2126214;27;20022;-60
2021/03/04 06:58:01;;;;;;;20.65;14.68;;;11.60;59.50;;;;;;2129699;27;20034;-60
2021/03/04 06:59:21;;;;;;;19.95;12.52;;;11.50;59.60;;;;;;2130029;27;20070;-59